Villa Cavazos, Texas
Current Conditions -  °F | °C
As of 2:53 AM on Friday 28 Nov 2014 (Local Time) from KBRO Reporting Station
Haze Haze  
Wind Chill: 51°   Ceiling: 200
Heat Index: 51°   Visibility: 2.5mi
Dew Point: 50°   Wind: 3mph
Humidity: 96%   Direction: 90°E
Pressure: 30.33"   Gusts: NA
Location:  26.0002°N, 97.5729°W
Report Text: KBRO 280853Z 09003KT 2 1/2SM BR BKN002 11/10 A3033 RMK AO2 SLP268 T01060100 56009
Loading
Personal Weather Stations






























Interactive Weather Map New forecast layout! Learn more

10-Day Weather Forecast

Advertisements
Track Severe Weather on mobile